createdAt,value
2023-03-22T00:01:00.000Z,98.9
2023-03-22T00:02:16.000Z,98.9
2023-03-22T00:03:32.000Z,98.8
2023-03-22T00:04:48.000Z,98.8
2023-03-22T00:06:05.196Z,98.7
2023-03-22T00:07:21.000Z,98.7
2023-03-22T00:08:37.771Z,98.8
2023-03-22T00:09:54.067Z,98.9
2023-03-22T00:11:10.372Z,98.8
2023-03-22T00:12:25.670Z,98.7
2023-03-22T00:13:41.965Z,98.6
2023-03-22T00:14:58.000Z,98.6
2023-03-22T00:16:14.000Z,98.6
2023-03-22T00:17:30.000Z,98.6
2023-03-22T00:18:47.000Z,98.6
2023-03-22T00:20:03.443Z,98.7
2023-03-22T00:21:19.733Z,98.9
2023-03-22T00:22:36.031Z,98.6
2023-03-22T00:23:52.000Z,98.4
2023-03-22T00:25:08.000Z,98.3
2023-03-22T00:26:24.000Z,98.3
2023-03-22T00:27:41.000Z,98.3
2023-03-22T00:28:56.505Z,98.4
2023-03-22T00:30:12.000Z,98.5
2023-03-22T00:31:29.092Z,98.7
2023-03-22T00:32:45.386Z,99.1
2023-03-22T00:34:01.000Z,98.7
2023-03-22T00:35:18.000Z,98.5
2023-03-22T00:36:34.279Z,98.3
2023-03-22T00:37:50.000Z,98.5
2023-03-22T00:39:06.000Z,98.5
2023-03-22T00:40:23.000Z,98.5
2023-03-22T00:41:39.445Z,98.3
2023-03-22T00:42:55.747Z,98.3
2023-03-22T00:44:12.030Z,98.5
2023-03-22T00:45:27.000Z,98.5
2023-03-22T00:46:43.000Z,98.3
2023-03-22T00:47:59.000Z,98
2023-03-22T00:49:16.000Z,97.9
2023-03-22T00:50:32.000Z,97.9
2023-03-22T00:51:48.806Z,97.8
2023-03-22T00:53:04.000Z,97.8
2023-03-22T00:54:20.413Z,97.8
2023-03-22T00:55:36.717Z,97.7
2023-03-22T00:56:53.000Z,97.9
2023-03-22T00:58:09.000Z,97.8
2023-03-22T00:59:25.588Z,97.5
2023-03-22T01:00:41.000Z,97.5
2023-03-22T01:01:58.000Z,97.3
2023-03-22T01:03:14.478Z,97.4
2023-03-22T01:04:30.769Z,97.3
2023-03-22T01:05:47.075Z,97.2
2023-03-22T01:07:03.367Z,97.2
2023-03-22T01:08:19.000Z,96.9
2023-03-22T01:09:34.000Z,96.9
2023-03-22T01:10:51.000Z,97
2023-03-22T01:12:07.000Z,96.5
2023-03-22T01:13:23.000Z,96.3
2023-03-22T01:14:40.133Z,96.1
2023-03-22T01:15:56.428Z,96.1
2023-03-22T01:17:12.000Z,96
2023-03-22T01:18:29.000Z,95.8
2023-03-22T01:19:45.000Z,95.9
2023-03-22T01:21:01.000Z,95.9
2023-03-22T01:22:17.890Z,96
2023-03-22T01:23:34.000Z,96
2023-03-22T01:24:50.486Z,95.9
2023-03-22T01:26:05.788Z,95.8
2023-03-22T01:27:22.082Z,95.7
2023-03-22T01:28:38.000Z,95.7
2023-03-22T01:29:54.000Z,96
2023-03-22T01:31:10.000Z,96
2023-03-22T01:32:27.000Z,96.1
2023-03-22T01:33:43.000Z,96.3
2023-03-22T01:34:59.838Z,96.4
2023-03-22T01:36:16.150Z,96.1
2023-03-22T01:37:32.435Z,96.1
2023-03-22T01:38:48.000Z,96.1
2023-03-22T01:40:05.000Z,96.2
2023-03-22T01:41:21.000Z,96.2
2023-03-22T01:42:36.000Z,96.2
2023-03-22T01:43:52.000Z,96.2
2023-03-22T01:45:09.000Z,96.3
2023-03-22T01:46:25.521Z,96.3
2023-03-22T01:47:41.000Z,96.2
2023-03-22T01:48:58.000Z,96.3
2023-03-22T01:50:14.385Z,96.1
2023-03-22T01:51:30.681Z,95.8
2023-03-22T01:52:46.969Z,95.5
2023-03-22T01:54:03.000Z,95.5
2023-03-22T01:55:19.000Z,95.4
2023-03-22T01:56:35.000Z,95.5
2023-03-22T01:57:52.000Z,95.5
2023-03-22T01:59:07.000Z,95.5
2023-03-22T02:00:23.758Z,95.5
2023-03-22T02:01:40.052Z,95.7
2023-03-22T02:02:56.336Z,95.6
2023-03-22T02:04:12.000Z,95.4
2023-03-22T02:05:28.924Z,95.2
2023-03-22T02:06:45.000Z,95.3
2023-03-22T02:08:01.524Z,95.3
2023-03-22T02:09:17.000Z,95.6
2023-03-22T02:10:34.092Z,95.5
2023-03-22T02:11:50.404Z,95.6
2023-03-22T02:13:06.693Z,95.7
2023-03-22T02:14:23.000Z,95.7
2023-03-22T02:15:38.292Z,95.8
2023-03-22T02:16:54.000Z,95.5
2023-03-22T02:18:10.000Z,95.3
2023-03-22T02:19:27.000Z,95.3
2023-03-22T02:20:43.480Z,95.3
2023-03-22T02:21:59.000Z,95.2
2023-03-22T02:23:16.045Z,95.3
2023-03-22T02:24:32.356Z,95.3
2023-03-22T02:25:48.000Z,95.3
2023-03-22T02:27:04.000Z,95.3
2023-03-22T02:28:21.000Z,95.3
2023-03-22T02:29:37.000Z,95.3
2023-03-22T02:30:53.813Z,94.9
2023-03-22T02:32:09.000Z,94.7
2023-03-22T02:33:25.000Z,94.7
2023-03-22T02:34:41.000Z,94.5
2023-03-22T02:35:58.019Z,94.6
2023-03-22T02:37:14.305Z,94.6
2023-03-22T02:38:30.597Z,94.7
2023-03-22T02:39:46.000Z,94.7
2023-03-22T02:41:03.000Z,94.7
2023-03-22T02:42:19.000Z,94.7
2023-03-22T02:43:35.768Z,94.3
2023-03-22T02:44:52.000Z,94
2023-03-22T02:46:08.354Z,94
2023-03-22T02:47:24.643Z,94
2023-03-22T02:48:39.000Z,93.9
2023-03-22T02:49:56.000Z,93.8
2023-03-22T02:51:12.000Z,93.8
2023-03-22T02:52:28.000Z,93.9
2023-03-22T02:53:45.000Z,94
2023-03-22T02:55:01.000Z,93.6
2023-03-22T02:56:17.724Z,93.5
2023-03-22T02:57:34.019Z,93.2
2023-03-22T02:58:50.298Z,93.2
2023-03-22T03:00:06.000Z,93.2
2023-03-22T03:01:22.892Z,93.3
2023-03-22T03:02:39.000Z,93.2
2023-03-22T03:03:55.000Z,93.1
2023-03-22T03:05:10.000Z,92.9
2023-03-22T03:06:27.000Z,92.6
2023-03-22T03:07:43.000Z,92.5
2023-03-22T03:08:59.668Z,92.3
2023-03-22T03:10:15.969Z,92.4
2023-03-22T03:11:32.246Z,92.4
2023-03-22T03:12:48.000Z,92.3
2023-03-22T03:14:04.841Z,92.2
2023-03-22T03:15:21.000Z,91.9
2023-03-22T03:16:37.000Z,92
2023-03-22T03:17:53.000Z,92
2023-03-22T03:19:10.000Z,91.4
2023-03-22T03:20:26.000Z,91.7
2023-03-22T03:21:41.610Z,91.7
2023-03-22T03:22:57.907Z,91.2
2023-03-22T03:24:14.215Z,91.4
2023-03-22T03:25:30.000Z,91
2023-03-22T03:26:46.000Z,91.2
2023-03-22T03:28:03.000Z,90.9
2023-03-22T03:29:19.000Z,90.9
2023-03-22T03:30:35.000Z,90.7
2023-03-22T03:31:51.979Z,90.6
2023-03-22T03:33:08.251Z,90.7
2023-03-22T03:34:24.000Z,90.8
2023-03-22T03:35:40.841Z,90.3
2023-03-22T03:36:57.000Z,90.4
2023-03-22T03:38:12.000Z,90.1
2023-03-22T03:39:28.000Z,90.3
2023-03-22T03:40:45.000Z,90.1
2023-03-22T03:42:01.000Z,89.8
2023-03-22T03:43:17.617Z,89.9
2023-03-22T03:44:33.919Z,89.9
2023-03-22T03:45:50.215Z,89.8
2023-03-22T03:47:06.497Z,89.8
2023-03-22T03:48:22.000Z,90
2023-03-22T03:49:39.084Z,89.6
2023-03-22T03:50:55.000Z,89.4
2023-03-22T03:52:11.000Z,89.4
2023-03-22T03:53:27.986Z,89.2
2023-03-22T03:54:43.282Z,89.1
2023-03-22T03:55:59.572Z,89.3
2023-03-22T03:57:15.000Z,89.3
2023-03-22T03:58:32.000Z,89.5
2023-03-22T03:59:48.000Z,89.5
2023-03-22T04:01:04.000Z,89.3
2023-03-22T04:02:21.056Z,89.1
2023-03-22T04:03:37.000Z,89.1
2023-03-22T04:04:53.621Z,89.1
2023-03-22T04:06:09.924Z,89.4
2023-03-22T04:07:26.210Z,89.1
2023-03-22T04:08:42.000Z,89.1
2023-03-22T04:09:58.812Z,89.4
2023-03-22T04:11:14.000Z,89.1
2023-03-22T04:12:30.000Z,89.3
2023-03-22T04:13:46.000Z,89.2
2023-03-22T04:15:02.990Z,89.2
2023-03-22T04:16:19.000Z,89.1
2023-03-22T04:17:35.578Z,89.1
2023-03-22T04:18:51.889Z,89
2023-03-22T04:20:08.159Z,89
2023-03-22T04:21:24.000Z,88.9
2023-03-22T04:22:40.753Z,88.8
2023-03-22T04:23:57.000Z,89.2
2023-03-22T04:25:13.336Z,89.3
2023-03-22T04:26:29.000Z,88.9
2023-03-22T04:27:44.000Z,88.9
2023-03-22T04:29:01.239Z,88.9
2023-03-22T04:30:17.538Z,88.6
2023-03-22T04:31:33.000Z,89
2023-03-22T04:32:50.130Z,89.3
2023-03-22T04:34:06.000Z,89.2
2023-03-22T04:35:22.000Z,88.8
2023-03-22T04:36:39.000Z,88.8
2023-03-22T04:37:55.000Z,89.1
2023-03-22T04:39:11.591Z,88.8
2023-03-22T04:40:27.898Z,88.8
2023-03-22T04:41:44.000Z,88.8
2023-03-22T04:43:00.000Z,88.9
2023-03-22T04:44:15.000Z,88.9
2023-03-22T04:45:31.000Z,88.9
2023-03-22T04:46:48.000Z,89
2023-03-22T04:48:04.391Z,88.9
2023-03-22T04:49:20.000Z,89.2
2023-03-22T04:50:36.871Z,89.3
2023-03-22T04:51:53.134Z,89
2023-03-22T04:53:09.374Z,89
2023-03-22T04:54:25.000Z,88.9
2023-03-22T04:55:41.841Z,89.1
2023-03-22T04:56:58.000Z,88.9
2023-03-22T04:58:14.000Z,89
2023-03-22T04:59:30.000Z,89
2023-03-22T05:00:45.820Z,89.1
2023-03-22T05:02:02.000Z,89.2
2023-03-22T05:03:18.296Z,89.3
2023-03-22T05:04:34.526Z,89.4
2023-03-22T05:05:50.000Z,89.5
2023-03-22T05:07:07.013Z,89.3
2023-03-22T05:08:23.000Z,88.9
2023-03-22T05:09:39.621Z,88.9
2023-03-22T05:10:55.877Z,89
2023-03-22T05:12:12.000Z,89.2
2023-03-22T05:13:28.329Z,89.3
2023-03-22T05:14:44.587Z,89.3
2023-03-22T05:16:00.828Z,89.4
2023-03-22T05:17:17.000Z,89.6
2023-03-22T05:18:33.304Z,89.8
2023-03-22T05:19:49.000Z,89.5
2023-03-22T05:21:05.766Z,89.2
2023-03-22T05:22:22.000Z,89
2023-03-22T05:23:38.253Z,89
2023-03-22T05:24:53.521Z,89.1
2023-03-22T05:26:09.749Z,89.1
2023-03-22T05:27:26.000Z,89.3
2023-03-22T05:28:42.000Z,89.3
2023-03-22T05:29:58.000Z,89.7
2023-03-22T05:31:14.000Z,89.6
2023-03-22T05:32:30.000Z,89.6
2023-03-22T05:33:47.188Z,89.4
2023-03-22T05:35:03.428Z,89.4
2023-03-22T05:36:19.671Z,89.5
2023-03-22T05:37:35.000Z,89.4
2023-03-22T05:38:52.145Z,89.5
2023-03-22T05:40:08.379Z,89.4
2023-03-22T05:41:23.000Z,89.6
2023-03-22T05:42:39.000Z,89.4
2023-03-22T05:43:56.000Z,89.4
2023-03-22T05:45:12.000Z,89.6
2023-03-22T05:46:28.000Z,89.6
2023-03-22T05:47:44.841Z,89.4
2023-03-22T05:49:01.088Z,89.3
2023-03-22T05:50:17.000Z,89.2
2023-03-22T05:51:33.000Z,89.3
2023-03-22T05:52:49.000Z,89.2
2023-03-22T05:54:06.000Z,89.4
2023-03-22T05:55:22.000Z,89.3
2023-03-22T05:56:38.522Z,89.3
2023-03-22T05:57:54.754Z,89.4
2023-03-22T05:59:10.018Z,89.5
2023-03-22T06:00:26.259Z,89.6
2023-03-22T06:01:42.000Z,89.6
2023-03-22T06:02:58.000Z,89
2023-03-22T06:04:14.962Z,89
2023-03-22T06:05:31.000Z,89.1
2023-03-22T06:06:47.000Z,89
2023-03-22T06:08:03.000Z,89
2023-03-22T06:09:19.934Z,89
2023-03-22T06:10:36.162Z,89.1
2023-03-22T06:11:52.408Z,89.1
2023-03-22T06:13:08.000Z,89.1
2023-03-22T06:14:24.000Z,88.9
2023-03-22T06:15:40.000Z,88.7
2023-03-22T06:16:56.000Z,88.5
2023-03-22T06:18:12.000Z,88.4
2023-03-22T06:19:28.870Z,88.3
2023-03-22T06:20:45.000Z,88.3
2023-03-22T06:22:01.336Z,88.6
2023-03-22T06:23:17.000Z,88.5
2023-03-22T06:24:33.000Z,88.3
2023-03-22T06:25:50.000Z,88.2
2023-03-22T06:27:06.314Z,88.5
2023-03-22T06:28:22.540Z,88
2023-03-22T06:29:38.000Z,87.9
2023-03-22T06:30:55.016Z,87.7
2023-03-22T06:32:10.275Z,87.5
2023-03-22T06:33:26.000Z,87.7
2023-03-22T06:34:42.000Z,87.6
2023-03-22T06:35:59.000Z,87.5
2023-03-22T06:37:15.000Z,87.3
2023-03-22T06:38:31.000Z,87.4
2023-03-22T06:39:47.000Z,87.7
2023-03-22T06:41:03.000Z,87.2
2023-03-22T06:42:20.198Z,86.8
2023-03-22T06:43:36.424Z,87.1
2023-03-22T06:44:52.670Z,86.6
2023-03-22T06:46:08.000Z,86.6
2023-03-22T06:47:25.000Z,86.6
2023-03-22T06:48:40.000Z,86.6
2023-03-22T06:49:56.639Z,87
2023-03-22T06:51:12.900Z,86.7
2023-03-22T06:52:29.000Z,87
2023-03-22T06:53:45.368Z,86.3
2023-03-22T06:55:01.608Z,85.9
2023-03-22T06:56:17.857Z,86.2
2023-03-22T06:57:34.073Z,86.3
2023-03-22T06:58:50.000Z,86
2023-03-22T07:00:06.000Z,86
2023-03-22T07:01:22.000Z,85.8
2023-03-22T07:02:39.000Z,85.5
2023-03-22T07:03:55.000Z,85.4
2023-03-22T07:05:10.528Z,85.7
2023-03-22T07:06:26.774Z,85.2
2023-03-22T07:07:43.007Z,85
2023-03-22T07:08:59.000Z,85
2023-03-22T07:10:15.497Z,84.9
2023-03-22T07:11:31.000Z,84.7
2023-03-22T07:12:47.974Z,84.4
2023-03-22T07:14:04.000Z,84.4
2023-03-22T07:15:20.446Z,84.2
2023-03-22T07:16:36.000Z,83.8
2023-03-22T07:17:52.933Z,83.9
2023-03-22T07:19:09.178Z,84
2023-03-22T07:20:25.421Z,83.8
2023-03-22T07:21:40.000Z,83.7
2023-03-22T07:22:56.913Z,83.4
2023-03-22T07:24:13.000Z,83.4
2023-03-22T07:25:29.000Z,83.3
2023-03-22T07:26:45.000Z,83
2023-03-22T07:28:01.000Z,82.7
2023-03-22T07:29:18.115Z,82.4
2023-03-22T07:30:34.358Z,82.2
2023-03-22T07:31:50.000Z,82.2
2023-03-22T07:33:06.000Z,81.7
2023-03-22T07:34:23.000Z,81.5
2023-03-22T07:35:39.000Z,81.3
2023-03-22T07:36:55.000Z,81.3
2023-03-22T07:38:10.000Z,81.3
2023-03-22T07:39:27.000Z,81
2023-03-22T07:40:43.283Z,80.8
2023-03-22T07:41:59.525Z,80.4
2023-03-22T07:43:15.766Z,80.2
2023-03-22T07:44:32.000Z,80
2023-03-22T07:45:48.000Z,80
2023-03-22T07:47:04.000Z,80.3
2023-03-22T07:48:20.000Z,80.1
2023-03-22T07:49:36.000Z,80.4
2023-03-22T07:50:53.192Z,80.3
2023-03-22T07:52:09.435Z,80.3
2023-03-22T07:53:25.000Z,80.6
2023-03-22T07:54:40.000Z,80.2
2023-03-22T07:55:57.000Z,80.2
2023-03-22T07:57:13.000Z,80.2
2023-03-22T07:58:29.000Z,79.9
2023-03-22T07:59:45.000Z,80.2
2023-03-22T08:01:02.137Z,80.2
2023-03-22T08:02:18.378Z,80.5
2023-03-22T08:03:34.593Z,80.6
2023-03-22T08:04:50.000Z,80.9
2023-03-22T08:06:07.094Z,80.9
2023-03-22T08:07:23.000Z,81
2023-03-22T08:08:39.000Z,81
2023-03-22T08:09:55.000Z,81.2
2023-03-22T08:11:11.000Z,81.3
2023-03-22T08:12:27.292Z,81.4
2023-03-22T08:13:43.545Z,81.1
2023-03-22T08:14:59.789Z,81.2
2023-03-22T08:16:16.000Z,81.4
2023-03-22T08:17:32.000Z,81.6
2023-03-22T08:18:48.000Z,81.5
2023-03-22T08:20:04.000Z,81.4
2023-03-22T08:21:20.975Z,81.5
2023-03-22T08:22:37.000Z,81.5
2023-03-22T08:23:53.440Z,81.1
2023-03-22T08:25:09.699Z,81.1
2023-03-22T08:26:25.932Z,81.1
2023-03-22T08:27:41.000Z,81.3
2023-03-22T08:28:57.436Z,81.3
2023-03-22T08:30:13.000Z,81
2023-03-22T08:31:29.000Z,81
2023-03-22T08:32:46.000Z,80.5
2023-03-22T08:34:02.395Z,80.5
2023-03-22T08:35:18.636Z,80.4
2023-03-22T08:36:34.864Z,80.1
2023-03-22T08:37:51.000Z,79.9
2023-03-22T08:39:07.000Z,79.8
2023-03-22T08:40:23.000Z,79.8
2023-03-22T08:41:39.825Z,79.5
2023-03-22T08:42:56.000Z,79.7
2023-03-22T08:44:11.315Z,79.7
2023-03-22T08:45:27.569Z,79.7
2023-03-22T08:46:43.787Z,79.1
2023-03-22T08:48:00.039Z,79
2023-03-22T08:49:16.000Z,79.2
2023-03-22T08:50:32.000Z,79.5
2023-03-22T08:51:48.766Z,78.8
2023-03-22T08:53:05.000Z,79
2023-03-22T08:54:21.000Z,79.2
2023-03-22T08:55:37.481Z,78.5
2023-03-22T08:56:53.718Z,77.7
2023-03-22T08:58:09.954Z,77.5
2023-03-22T08:59:26.189Z,77.6
2023-03-22T09:00:41.000Z,77.5
2023-03-22T09:01:57.000Z,76.8
2023-03-22T09:03:13.000Z,76
2023-03-22T09:04:30.000Z,75.7
2023-03-22T09:05:46.000Z,75.9
2023-03-22T09:07:02.629Z,75.9
2023-03-22T09:08:18.880Z,76
2023-03-22T09:09:35.106Z,75.5
2023-03-22T09:10:51.000Z,75.1
2023-03-22T09:12:07.593Z,75.2
2023-03-22T09:13:23.843Z,74.5
2023-03-22T09:14:40.092Z,73.6
2023-03-22T09:15:56.000Z,73.6
2023-03-22T09:17:11.000Z,73.7
2023-03-22T09:18:27.823Z,73.6
2023-03-22T09:19:44.049Z,73.5
2023-03-22T09:21:00.000Z,73.7
2023-03-22T09:22:16.530Z,73.7
2023-03-22T09:23:31.000Z,73.2
2023-03-22T09:24:48.030Z,72.8
2023-03-22T09:26:04.000Z,72.8
2023-03-22T09:27:20.518Z,70
2023-03-22T09:28:36.000Z,69.4
2023-03-22T09:29:52.998Z,69
2023-03-22T09:31:09.000Z,69.5
2023-03-22T09:32:25.000Z,69.9
2023-03-22T09:33:41.000Z,70.4
2023-03-22T09:34:57.000Z,70.7
2023-03-22T09:36:14.000Z,70
2023-03-22T09:37:30.431Z,69.3
2023-03-22T09:38:46.000Z,68.9
2023-03-22T09:40:01.000Z,69.2
2023-03-22T09:41:18.147Z,68.4
2023-03-22T09:42:34.400Z,68.8
2023-03-22T09:43:50.000Z,68.7
2023-03-22T09:45:06.881Z,68.5
2023-03-22T09:46:23.000Z,69
2023-03-22T09:47:39.000Z,69.2
2023-03-22T09:48:55.000Z,68.5
2023-03-22T09:50:11.855Z,68.3
2023-03-22T09:51:28.078Z,67.9
2023-03-22T09:52:44.308Z,67.9
2023-03-22T09:54:00.559Z,68
2023-03-22T09:55:16.000Z,68.4
2023-03-22T09:56:32.000Z,68.1
2023-03-22T09:57:48.000Z,67.8
2023-03-22T09:59:04.000Z,67.2
2023-03-22T10:00:20.771Z,67.1
2023-03-22T10:01:37.000Z,67.2
2023-03-22T10:02:53.000Z,65.8
2023-03-22T10:04:09.491Z,65.6
2023-03-22T10:05:25.731Z,64.6
2023-03-22T10:06:42.000Z,65.2
2023-03-22T10:07:58.197Z,65.7
2023-03-22T10:09:14.000Z,65.9
2023-03-22T10:10:30.000Z,66
2023-03-22T10:11:46.000Z,65.2
2023-03-22T10:13:02.000Z,65.6
2023-03-22T10:14:18.000Z,65.8
2023-03-22T10:15:34.676Z,65.3
2023-03-22T10:16:50.915Z,65.2
2023-03-22T10:18:07.000Z,64.9
2023-03-22T10:19:23.000Z,64.4
2023-03-22T10:20:39.638Z,64.4
2023-03-22T10:21:55.000Z,64.7
2023-03-22T10:23:12.094Z,64.1
2023-03-22T10:24:28.000Z,63.4
2023-03-22T10:25:44.576Z,62.9
2023-03-22T10:27:00.823Z,62.4
2023-03-22T10:28:17.051Z,62.9
2023-03-22T10:29:32.308Z,63.1
2023-03-22T10:30:48.565Z,63
2023-03-22T10:32:04.000Z,63.2
2023-03-22T10:33:21.045Z,62.9
2023-03-22T10:34:37.269Z,63.4
2023-03-22T10:35:53.519Z,63.3
2023-03-22T10:37:09.750Z,61.6
2023-03-22T10:38:26.005Z,61.4
2023-03-22T10:39:42.231Z,62.1
2023-03-22T10:40:58.482Z,61.8
2023-03-22T10:42:14.705Z,62
2023-03-22T10:43:30.945Z,62.2
2023-03-22T10:44:47.000Z,62.4
2023-03-22T10:46:02.427Z,61.5
2023-03-22T10:47:18.673Z,62
2023-03-22T10:48:34.913Z,62.8
2023-03-22T10:49:51.163Z,62.5
2023-03-22T10:51:07.404Z,63
2023-03-22T10:52:23.000Z,62.3
2023-03-22T10:53:39.859Z,62.2
2023-03-22T10:54:56.000Z,63.4
2023-03-22T10:56:12.000Z,63
2023-03-22T10:57:28.000Z,62.7
2023-03-22T10:58:44.000Z,62.4
2023-03-22T11:00:01.071Z,61.5
2023-03-22T11:01:17.317Z,61.3
2023-03-22T11:02:33.000Z,58.9
2023-03-22T11:03:49.000Z,57.4
2023-03-22T11:05:06.129Z,57.3
2023-03-22T11:06:22.385Z,56.9
2023-03-22T11:07:38.000Z,57.6
2023-03-22T11:08:54.876Z,58.3
2023-03-22T11:10:11.102Z,58.4
2023-03-22T11:11:27.334Z,58.8
2023-03-22T11:12:43.000Z,59.3
2023-03-22T11:13:59.813Z,59.2
2023-03-22T11:15:16.000Z,58.9
2023-03-22T11:16:32.303Z,58.9
2023-03-22T11:17:48.000Z,58.4
2023-03-22T11:19:03.000Z,58.3
2023-03-22T11:20:20.015Z,58.1
2023-03-22T11:21:36.259Z,58.4
2023-03-22T11:22:52.523Z,58
2023-03-22T11:24:08.749Z,57
2023-03-22T11:25:24.988Z,57.5
2023-03-22T11:26:41.241Z,57.2
2023-03-22T11:27:57.000Z,56.6
2023-03-22T11:29:13.711Z,56.4
2023-03-22T11:30:29.958Z,56.5
2023-03-22T11:31:46.203Z,56.5
2023-03-22T11:33:02.424Z,56.3
2023-03-22T11:34:18.672Z,55.6
2023-03-22T11:35:33.000Z,55.7
2023-03-22T11:36:50.171Z,56.2
2023-03-22T11:38:06.416Z,56.6
2023-03-22T11:39:22.637Z,56.2
2023-03-22T11:40:38.892Z,56.2
2023-03-22T11:41:55.114Z,55
2023-03-22T11:43:11.352Z,55.1
2023-03-22T11:44:27.605Z,55.6
2023-03-22T11:45:43.819Z,56.1
2023-03-22T11:47:00.077Z,55.3
2023-03-22T11:48:16.326Z,55
2023-03-22T11:49:32.531Z,54.9
2023-03-22T11:50:48.810Z,55.1
2023-03-22T11:52:04.033Z,55
2023-03-22T11:53:20.298Z,54.7
2023-03-22T11:54:36.536Z,54.3
2023-03-22T11:55:52.763Z,54.7
2023-03-22T11:57:08.989Z,53.8
2023-03-22T11:58:25.249Z,53.9
2023-03-22T11:59:41.482Z,54.2
2023-03-22T12:00:57.000Z,54.6
2023-03-22T12:02:13.958Z,53.9
2023-03-22T12:03:30.000Z,53.8
2023-03-22T12:04:46.000Z,53.8
2023-03-22T12:07:18.906Z,53.6
2023-03-22T12:08:35.000Z,52.9
2023-03-22T12:09:50.407Z,52.7
2023-03-22T12:11:06.000Z,53
2023-03-22T12:12:22.872Z,52.3
2023-03-22T12:13:39.000Z,52.1
2023-03-22T12:14:55.373Z,52.6
2023-03-22T12:16:11.000Z,52.5
2023-03-22T12:17:27.841Z,51.9
2023-03-22T12:18:44.091Z,52.1
2023-03-22T12:20:00.321Z,52.2
2023-03-22T12:21:16.000Z,52.4
2023-03-22T12:22:32.810Z,52.7
2023-03-22T12:23:49.000Z,52.6
2023-03-22T12:25:05.287Z,52
2023-03-22T12:26:20.542Z,52.3
2023-03-22T12:27:36.789Z,52.4
2023-03-22T12:28:53.028Z,52.6
2023-03-22T12:30:09.258Z,52.2
2023-03-22T12:31:25.000Z,52.7
2023-03-22T12:32:41.739Z,52.5
2023-03-22T12:33:57.000Z,53
2023-03-22T12:35:14.228Z,53.5
2023-03-22T12:36:30.000Z,54.1
2023-03-22T12:37:46.701Z,53.6
2023-03-22T12:39:02.946Z,52.4
2023-03-22T12:40:19.179Z,52.6
2023-03-22T12:41:35.000Z,52.3
2023-03-22T12:42:50.000Z,51.9
2023-03-22T12:44:06.000Z,52
2023-03-22T12:45:23.000Z,52.1
2023-03-22T12:46:39.000Z,52.2
2023-03-22T12:47:55.618Z,52
2023-03-22T12:49:11.868Z,51.9
2023-03-22T12:50:28.110Z,51.8
2023-03-22T12:51:44.329Z,51.9
2023-03-22T12:53:00.573Z,51.3
2023-03-22T12:54:16.000Z,51.4
2023-03-22T12:55:33.075Z,51.7
2023-03-22T12:56:49.000Z,52.1
2023-03-22T12:58:05.000Z,52.3
2023-03-22T12:59:20.000Z,51.5
2023-03-22T13:00:37.044Z,51.3
2023-03-22T13:01:53.296Z,51.4
2023-03-22T13:03:09.502Z,50.6
2023-03-22T13:04:25.000Z,50.1
2023-03-22T13:05:41.997Z,49.3
2023-03-22T13:06:58.000Z,49.8
2023-03-22T13:08:14.455Z,50.4
2023-03-22T13:09:30.000Z,50.3
2023-03-22T13:10:46.974Z,50.1
2023-03-22T13:12:03.195Z,49.7
2023-03-22T13:13:19.435Z,49.1
2023-03-22T13:14:35.679Z,49
2023-03-22T13:15:50.930Z,49.4
2023-03-22T13:17:07.159Z,49.8
2023-03-22T13:18:23.411Z,49.1
2023-03-22T13:19:39.655Z,48.4
2023-03-22T13:20:55.000Z,47.8
2023-03-22T13:22:12.000Z,47.6
2023-03-22T13:23:28.372Z,47.8
2023-03-22T13:24:44.612Z,48.4
2023-03-22T13:26:00.845Z,48.7
2023-03-22T13:27:17.086Z,48.9
2023-03-22T13:28:33.000Z,49
2023-03-22T13:29:49.000Z,48.9
2023-03-22T13:31:05.789Z,49.1
2023-03-22T13:32:21.000Z,49.1
2023-03-22T13:33:37.300Z,48.9
2023-03-22T13:34:53.550Z,49.2
2023-03-22T13:36:09.756Z,49
2023-03-22T13:37:26.000Z,48.8
2023-03-22T13:38:41.280Z,48.8
2023-03-22T13:39:57.000Z,48.9
2023-03-22T13:41:13.764Z,48.8
2023-03-22T13:42:30.000Z,48.8
2023-03-22T13:43:46.000Z,49.3
2023-03-22T13:45:02.000Z,49.9
2023-03-22T13:46:18.724Z,49.8
2023-03-22T13:47:34.956Z,50.2
2023-03-22T13:48:51.164Z,50
2023-03-22T13:50:07.000Z,50.7
2023-03-22T13:51:23.656Z,50.2
2023-03-22T13:52:39.908Z,50
2023-03-22T13:53:56.140Z,49.3
2023-03-22T13:55:11.000Z,49.4
2023-03-22T13:56:27.644Z,49.3
2023-03-22T13:57:43.000Z,49.3
2023-03-22T13:59:00.101Z,49.1
2023-03-22T14:00:16.336Z,48.6
2023-03-22T14:01:32.612Z,48.8
2023-03-22T14:02:48.000Z,49.2
2023-03-22T14:04:05.000Z,49.4
2023-03-22T14:05:21.000Z,48.9
2023-03-22T14:06:37.550Z,49
2023-03-22T14:07:53.000Z,48.8
2023-03-22T14:09:10.046Z,48.9
2023-03-22T14:10:26.250Z,49.4
2023-03-22T14:11:41.529Z,49.5
2023-03-22T14:12:57.746Z,49.4
2023-03-22T14:14:13.979Z,49.9
2023-03-22T14:15:30.000Z,49.5
2023-03-22T14:16:46.497Z,49.8
2023-03-22T14:18:02.000Z,49.7
2023-03-22T14:19:18.937Z,50.2
2023-03-22T14:20:35.208Z,50.1
2023-03-22T14:52:19.000Z,50
2023-03-22T14:53:35.000Z,49.7
2023-03-22T14:54:51.665Z,50
2023-03-22T14:56:07.941Z,50.3
2023-03-22T14:57:24.179Z,49.9
2023-03-22T14:58:40.000Z,49.4
2023-03-22T14:59:56.657Z,48.7
2023-03-22T15:01:11.902Z,48.7
2023-03-22T15:02:28.118Z,48.6
2023-03-22T15:03:44.000Z,48.3
2023-03-22T15:05:00.600Z,48.4
2023-03-22T15:06:16.000Z,48.6
2023-03-22T15:07:33.000Z,49
2023-03-22T15:08:49.000Z,49.5
2023-03-22T15:10:05.584Z,49.5
2023-03-22T15:11:21.806Z,49.4
2023-03-22T15:12:38.058Z,49.5
2023-03-22T15:13:54.000Z,49.5
2023-03-22T15:15:10.000Z,49.9
2023-03-22T15:16:26.000Z,50
2023-03-22T15:17:42.038Z,49.4
2023-03-22T15:18:58.000Z,48.9
2023-03-22T15:20:14.515Z,48.1
2023-03-22T15:21:30.000Z,47.8
2023-03-22T15:22:47.002Z,47.8
2023-03-22T15:24:03.244Z,47.9
2023-03-22T15:25:19.444Z,48
2023-03-22T15:26:35.722Z,48.1
2023-03-22T15:27:51.947Z,48
2023-03-22T15:29:08.184Z,47.5
2023-03-22T15:30:24.431Z,47.6
2023-03-22T15:31:40.659Z,47.1
2023-03-22T15:32:56.882Z,47.2
2023-03-22T15:34:12.159Z,47.5
2023-03-22T15:35:28.401Z,47.7
2023-03-22T15:36:44.650Z,47.9
2023-03-22T15:38:00.847Z,47.6
2023-03-22T15:39:17.123Z,47.9
2023-03-22T15:40:33.359Z,48.4
2023-03-22T15:41:49.603Z,48.4
2023-03-22T15:43:05.830Z,48.4
2023-03-22T15:44:22.084Z,48.4
2023-03-22T15:45:38.309Z,48.5
2023-03-22T15:46:54.549Z,48.6
2023-03-22T15:48:10.802Z,49
2023-03-22T15:49:27.040Z,49.1
2023-03-22T15:50:42.273Z,49.6
2023-03-22T15:51:58.523Z,49.9
2023-03-22T15:53:14.777Z,50
2023-03-22T15:54:31.014Z,50.1
2023-03-22T15:55:47.224Z,50.3
2023-03-22T15:57:03.490Z,50.7
2023-03-22T15:58:19.724Z,50.9
2023-03-22T15:59:35.964Z,51.1
2023-03-22T16:00:52.205Z,51.5
2023-03-22T16:02:08.442Z,51.7
2023-03-22T16:03:24.650Z,51.8
2023-03-22T16:04:40.911Z,51.7
2023-03-22T16:05:57.153Z,51.5
2023-03-22T16:07:12.420Z,51.8
2023-03-22T16:08:28.618Z,51.5
2023-03-22T16:09:44.899Z,52
2023-03-22T16:11:01.095Z,51.5
2023-03-22T16:12:17.380Z,51.9
2023-03-22T16:13:33.611Z,52.1
2023-03-22T16:14:49.853Z,52.1
2023-03-22T16:16:06.096Z,52.2
2023-03-22T16:17:22.322Z,52.6
2023-03-22T16:18:38.544Z,52.7
2023-03-22T16:19:54.814Z,52.6
2023-03-22T16:21:11.041Z,52.2
2023-03-22T16:22:27.281Z,52.5
2023-03-22T16:23:42.512Z,52.8
2023-03-22T16:24:58.776Z,52.9
2023-03-22T16:26:15.024Z,53
2023-03-22T16:27:31.254Z,52.9
2023-03-22T16:28:47.496Z,53.1
2023-03-22T16:30:03.743Z,53.2
2023-03-22T16:31:19.977Z,53.1
2023-03-22T16:32:36.182Z,53.3
2023-03-22T16:33:52.465Z,53.4
2023-03-22T16:35:08.687Z,53.4
2023-03-22T16:36:24.932Z,53.4
2023-03-22T16:37:41.148Z,53.5
2023-03-22T16:38:57.420Z,53.8
2023-03-22T16:40:12.672Z,53.6
2023-03-22T16:41:28.906Z,53.3
2023-03-22T16:42:45.157Z,53.6
2023-03-22T16:44:01.353Z,53.6
2023-03-22T16:45:17.629Z,53.8
2023-03-22T16:46:33.876Z,53.8
2023-03-22T16:47:50.103Z,53.9
2023-03-22T16:49:06.354Z,54
2023-03-22T16:50:22.583Z,54.2
2023-03-22T16:51:38.000Z,54.4
2023-03-22T16:52:55.068Z,54.5
2023-03-22T16:54:11.308Z,54.9
2023-03-22T16:55:27.536Z,54.6
2023-03-22T16:56:42.803Z,54.8
2023-03-22T16:57:59.048Z,54.8
2023-03-22T16:59:15.275Z,55
2023-03-22T17:00:31.508Z,55
2023-03-22T17:01:47.754Z,54.8
2023-03-22T17:03:03.967Z,55.1
2023-03-22T17:04:20.236Z,54.8
2023-03-22T17:05:36.484Z,55.1
2023-03-22T17:06:52.718Z,55.3
2023-03-22T17:08:08.917Z,55.4
2023-03-22T17:09:25.196Z,55.4
2023-03-22T17:10:41.432Z,55.5
2023-03-22T17:11:57.634Z,55.7
2023-03-22T17:13:12.937Z,56
2023-03-22T17:14:29.161Z,55.8
2023-03-22T17:15:45.379Z,55.5
2023-03-22T17:17:01.613Z,55.6
2023-03-22T17:18:17.897Z,55.9
2023-03-22T17:19:34.091Z,56
2023-03-22T17:20:50.362Z,56.1
2023-03-22T17:22:06.561Z,56.1
2023-03-22T17:23:22.804Z,56.5
2023-03-22T17:24:39.076Z,56.6
2023-03-22T17:25:55.319Z,56.7
2023-03-22T17:27:11.564Z,56.7
2023-03-22T17:28:27.000Z,56.8
2023-03-22T17:29:43.018Z,57
2023-03-22T17:30:59.000Z,57.2
2023-03-22T17:32:15.529Z,57
2023-03-22T17:33:31.000Z,57.2